CheckWX is a tool to help pilots better visualize weather data.  It is not intended as a substitute for an official pre-flight weather briefing.

15:41:49 UTC

KNYC METAR
Central Park Airport
New York City, New York, USA
Current

51 mins ago

KNYC 201451Z AUTO VRB03G18KT 10SM CLR 26/18 A2984 RMK AO2 SLP093 T02610178 58007 $
Observed
May-20 @ 14:51 UTC
Wind
  • Variable at 3 KTS
  • Gusting to 18 KTS
Visibility
10 SM
Flight Rules
VFR
Cloud Levels
  • Clear skies
Temperature
26°C / 79°F
Dewpoint
18°C / 64°F
Humidity
61%
Altimeter
29.84" Hg
Pressure
1010.52 hPa
Previous

2 hours ago

KNYC 201351Z AUTO VRB06KT 10SM FEW110 24/19 A2985 RMK AO2 SLP099 T02440189 $
Observed
May-20 @ 13:51 UTC
Wind
  • Variable at 6 KTS
Visibility
10 SM
Flight Rules
VFR
Cloud Levels
  • Few at 11,000' AGL
Temperature
24°C / 75°F
Dewpoint
19°C / 66°F
Humidity
74%
Altimeter
29.85" Hg
Pressure
1010.82 hPa
Previous

3 hours ago

KNYC 201251Z AUTO VRB06G15KT 10SM SCT120 23/18 A2986 RMK AO2 SLP103 T02330183 $
Observed
May-20 @ 12:51 UTC
Wind
  • Variable at 6 KTS
  • Gusting to 15 KTS
Visibility
10 SM
Flight Rules
VFR
Cloud Levels
  • Scattered at 12,000' AGL
Temperature
23°C / 73°F
Dewpoint
18°C / 64°F
Humidity
74%
Altimeter
29.86" Hg
Pressure
1011.22 hPa